sensor_id;sensor_type;location;lat;lon;timestamp;P1;durP1;ratioP1;P2;durP2;ratioP2
48203;SDS011;33994;50.998;5.864;2022-08-07T00:03:01;4.55;;;3.35;;
48203;SDS011;33994;50.998;5.864;2022-08-07T00:06:05;5.78;;;3.42;;
48203;SDS011;33994;50.998;5.864;2022-08-07T00:09:09;10.18;;;3.00;;
48203;SDS011;33994;50.998;5.864;2022-08-07T00:12:14;8.45;;;3.30;;
48203;SDS011;33994;50.998;5.864;2022-08-07T00:15:18;4.88;;;3.08;;
48203;SDS011;33994;50.998;5.864;2022-08-07T00:18:24;7.30;;;4.32;;
48203;SDS011;33994;50.998;5.864;2022-08-07T00:21:30;11.13;;;2.90;;
48203;SDS011;33994;50.998;5.864;2022-08-07T00:24:34;5.68;;;2.95;;
48203;SDS011;33994;50.998;5.864;2022-08-07T00:27:39;8.30;;;3.30;;
48203;SDS011;33994;50.998;5.864;2022-08-07T00:30:43;4.13;;;3.05;;
48203;SDS011;33994;50.998;5.864;2022-08-07T00:33:47;5.05;;;3.00;;
48203;SDS011;33994;50.998;5.864;2022-08-07T00:36:52;6.15;;;3.70;;
48203;SDS011;33994;50.998;5.864;2022-08-07T00:39:56;5.53;;;3.00;;
48203;SDS011;33994;50.998;5.864;2022-08-07T00:43:00;7.60;;;2.83;;
48203;SDS011;33994;50.998;5.864;2022-08-07T00:46:05;4.50;;;3.00;;
48203;SDS011;33994;50.998;5.864;2022-08-07T00:49:10;4.75;;;2.85;;
48203;SDS011;33994;50.998;5.864;2022-08-07T00:52:15;5.18;;;2.92;;
48203;SDS011;33994;50.998;5.864;2022-08-07T00:55:19;5.80;;;3.30;;
48203;SDS011;33994;50.998;5.864;2022-08-07T00:58:24;5.25;;;3.05;;
48203;SDS011;33994;50.998;5.864;2022-08-07T01:01:28;3.97;;;2.80;;
48203;SDS011;33994;50.998;5.864;2022-08-07T01:04:32;5.78;;;2.88;;
48203;SDS011;33994;50.998;5.864;2022-08-07T01:07:38;4.40;;;3.35;;
48203;SDS011;33994;50.998;5.864;2022-08-07T01:10:43;4.40;;;3.20;;
48203;SDS011;33994;50.998;5.864;2022-08-07T01:13:47;8.15;;;3.00;;
48203;SDS011;33994;50.998;5.864;2022-08-07T01:16:52;4.95;;;3.33;;
48203;SDS011;33994;50.998;5.864;2022-08-07T01:20:01;9.63;;;3.10;;
48203;SDS011;33994;50.998;5.864;2022-08-07T01:26:21;6.88;;;3.30;;
48203;SDS011;33994;50.998;5.864;2022-08-07T01:29:26;5.78;;;3.50;;
48203;SDS011;33994;50.998;5.864;2022-08-07T01:32:31;4.75;;;3.00;;
48203;SDS011;33994;50.998;5.864;2022-08-07T01:35:37;6.38;;;3.10;;
48203;SDS011;33994;50.998;5.864;2022-08-07T01:38:42;4.18;;;2.88;;
48203;SDS011;33994;50.998;5.864;2022-08-07T01:41:54;8.70;;;3.85;;
48203;SDS011;33994;50.998;5.864;2022-08-07T01:45:05;8.32;;;4.18;;
48203;SDS011;33994;50.998;5.864;2022-08-07T01:48:12;6.95;;;3.53;;
48203;SDS011;33994;50.998;5.864;2022-08-07T01:51:19;6.20;;;3.83;;
48203;SDS011;33994;50.998;5.864;2022-08-07T01:54:25;13.57;;;4.63;;
48203;SDS011;33994;50.998;5.864;2022-08-07T01:57:34;8.05;;;3.60;;
48203;SDS011;33994;50.998;5.864;2022-08-07T02:00:42;7.22;;;4.00;;
48203;SDS011;33994;50.998;5.864;2022-08-07T02:03:53;8.40;;;4.07;;
48203;SDS011;33994;50.998;5.864;2022-08-07T02:07:25;8.93;;;4.40;;
48203;SDS011;33994;50.998;5.864;2022-08-07T02:10:34;7.18;;;4.05;;
48203;SDS011;33994;50.998;5.864;2022-08-07T02:13:42;6.63;;;4.15;;
48203;SDS011;33994;50.998;5.864;2022-08-07T02:16:48;7.10;;;4.13;;
48203;SDS011;33994;50.998;5.864;2022-08-07T02:19:57;7.45;;;4.40;;
48203;SDS011;33994;50.998;5.864;2022-08-07T02:23:04;9.63;;;3.88;;
48203;SDS011;33994;50.998;5.864;2022-08-07T02:26:10;9.30;;;4.43;;
48203;SDS011;33994;50.998;5.864;2022-08-07T02:29:17;8.80;;;4.10;;
48203;SDS011;33994;50.998;5.864;2022-08-07T02:32:23;8.07;;;4.72;;
48203;SDS011;33994;50.998;5.864;2022-08-07T02:35:29;6.90;;;3.88;;
48203;SDS011;33994;50.998;5.864;2022-08-07T02:38:36;5.10;;;4.10;;
48203;SDS011;33994;50.998;5.864;2022-08-07T02:41:43;7.80;;;3.90;;
48203;SDS011;33994;50.998;5.864;2022-08-07T02:44:49;10.15;;;4.10;;
48203;SDS011;33994;50.998;5.864;2022-08-07T02:47:58;5.93;;;4.18;;
48203;SDS011;33994;50.998;5.864;2022-08-07T02:51:04;7.15;;;4.05;;
48203;SDS011;33994;50.998;5.864;2022-08-07T02:54:12;5.63;;;3.85;;
48203;SDS011;33994;50.998;5.864;2022-08-07T02:57:18;3.78;;;3.20;;
48203;SDS011;33994;50.998;5.864;2022-08-07T03:00:23;7.35;;;3.72;;
48203;SDS011;33994;50.998;5.864;2022-08-07T03:03:30;4.10;;;3.47;;
48203;SDS011;33994;50.998;5.864;2022-08-07T03:06:39;6.13;;;3.15;;
48203;SDS011;33994;50.998;5.864;2022-08-07T03:09:46;4.97;;;3.17;;
48203;SDS011;33994;50.998;5.864;2022-08-07T03:12:50;6.60;;;3.60;;
48203;SDS011;33994;50.998;5.864;2022-08-07T03:15:56;7.55;;;3.38;;
48203;SDS011;33994;50.998;5.864;2022-08-07T03:19:02;5.32;;;3.67;;
48203;SDS011;33994;50.998;5.864;2022-08-07T03:22:07;6.18;;;3.45;;
48203;SDS011;33994;50.998;5.864;2022-08-07T03:25:12;9.82;;;3.90;;
48203;SDS011;33994;50.998;5.864;2022-08-07T03:28:19;6.57;;;3.80;;
48203;SDS011;33994;50.998;5.864;2022-08-07T03:31:25;5.18;;;3.45;;
48203;SDS011;33994;50.998;5.864;2022-08-07T03:34:33;5.78;;;3.40;;
48203;SDS011;33994;50.998;5.864;2022-08-07T03:37:41;9.32;;;3.88;;
48203;SDS011;33994;50.998;5.864;2022-08-07T03:40:49;6.72;;;3.47;;
48203;SDS011;33994;50.998;5.864;2022-08-07T03:43:54;6.05;;;3.95;;
48203;SDS011;33994;50.998;5.864;2022-08-07T03:46:59;4.30;;;3.03;;
48203;SDS011;33994;50.998;5.864;2022-08-07T03:50:05;6.20;;;3.58;;
48203;SDS011;33994;50.998;5.864;2022-08-07T03:53:14;7.68;;;3.25;;
48203;SDS011;33994;50.998;5.864;2022-08-07T03:56:20;7.55;;;3.60;;
48203;SDS011;33994;50.998;5.864;2022-08-07T03:59:28;6.85;;;3.15;;
48203;SDS011;33994;50.998;5.864;2022-08-07T04:02:34;4.65;;;3.40;;
48203;SDS011;33994;50.998;5.864;2022-08-07T04:05:39;4.30;;;3.00;;
48203;SDS011;33994;50.998;5.864;2022-08-07T04:08:45;5.55;;;3.78;;
48203;SDS011;33994;50.998;5.864;2022-08-07T04:11:50;6.93;;;3.72;;
48203;SDS011;33994;50.998;5.864;2022-08-07T04:14:55;7.40;;;3.60;;
48203;SDS011;33994;50.998;5.864;2022-08-07T04:18:01;5.82;;;3.40;;
48203;SDS011;33994;50.998;5.864;2022-08-07T04:21:06;7.20;;;3.38;;
48203;SDS011;33994;50.998;5.864;2022-08-07T04:24:11;7.45;;;3.40;;
48203;SDS011;33994;50.998;5.864;2022-08-07T04:27:17;5.70;;;3.80;;
48203;SDS011;33994;50.998;5.864;2022-08-07T04:30:21;9.38;;;3.60;;
48203;SDS011;33994;50.998;5.864;2022-08-07T04:33:34;5.45;;;3.30;;
48203;SDS011;33994;50.998;5.864;2022-08-07T04:36:40;6.63;;;4.00;;
48203;SDS011;33994;50.998;5.864;2022-08-07T04:39:45;8.23;;;3.88;;
48203;SDS011;33994;50.998;5.864;2022-08-07T04:42:49;9.13;;;5.45;;
48203;SDS011;33994;50.998;5.864;2022-08-07T04:46:17;7.93;;;5.28;;
48203;SDS011;33994;50.998;5.864;2022-08-07T04:56:25;12.75;;;5.63;;
48203;SDS011;33994;50.998;5.864;2022-08-07T04:59:36;7.82;;;4.28;;
48203;SDS011;33994;50.998;5.864;2022-08-07T05:06:04;9.73;;;4.13;;
48203;SDS011;33994;50.998;5.864;2022-08-07T05:09:19;5.25;;;3.40;;
48203;SDS011;33994;50.998;5.864;2022-08-07T05:12:31;6.88;;;3.67;;
48203;SDS011;33994;50.998;5.864;2022-08-07T05:15:44;5.65;;;3.10;;
48203;SDS011;33994;50.998;5.864;2022-08-07T05:18:53;4.47;;;3.40;;
48203;SDS011;33994;50.998;5.864;2022-08-07T05:22:02;5.82;;;3.60;;
48203;SDS011;33994;50.998;5.864;2022-08-07T05:25:14;6.75;;;3.67;;
48203;SDS011;33994;50.998;5.864;2022-08-07T05:28:20;7.38;;;4.30;;
48203;SDS011;33994;50.998;5.864;2022-08-07T05:31:28;8.38;;;5.07;;
48203;SDS011;33994;50.998;5.864;2022-08-07T05:34:37;13.40;;;6.85;;
48203;SDS011;33994;50.998;5.864;2022-08-07T05:37:44;9.63;;;7.53;;
48203;SDS011;33994;50.998;5.864;2022-08-07T05:40:49;14.65;;;8.63;;
48203;SDS011;33994;50.998;5.864;2022-08-07T05:43:54;14.48;;;7.78;;
48203;SDS011;33994;50.998;5.864;2022-08-07T05:47:00;10.50;;;7.28;;
48203;SDS011;33994;50.998;5.864;2022-08-07T05:50:06;9.60;;;6.68;;
48203;SDS011;33994;50.998;5.864;2022-08-07T05:53:12;12.35;;;7.50;;
48203;SDS011;33994;50.998;5.864;2022-08-07T05:56:17;10.93;;;7.70;;
48203;SDS011;33994;50.998;5.864;2022-08-07T05:59:27;13.38;;;7.68;;
48203;SDS011;33994;50.998;5.864;2022-08-07T06:02:37;13.30;;;7.78;;
48203;SDS011;33994;50.998;5.864;2022-08-07T06:05:46;12.57;;;8.25;;
48203;SDS011;33994;50.998;5.864;2022-08-07T06:08:51;9.77;;;6.97;;
48203;SDS011;33994;50.998;5.864;2022-08-07T06:11:57;10.60;;;8.10;;
48203;SDS011;33994;50.998;5.864;2022-08-07T06:15:02;9.60;;;7.13;;
48203;SDS011;33994;50.998;5.864;2022-08-07T06:18:07;14.98;;;8.73;;
48203;SDS011;33994;50.998;5.864;2022-08-07T06:21:15;9.15;;;7.20;;
48203;SDS011;33994;50.998;5.864;2022-08-07T06:24:20;7.95;;;7.07;;
48203;SDS011;33994;50.998;5.864;2022-08-07T06:27:24;11.98;;;7.18;;
48203;SDS011;33994;50.998;5.864;2022-08-07T06:30:29;13.90;;;7.07;;
48203;SDS011;33994;50.998;5.864;2022-08-07T06:33:33;9.85;;;7.28;;
48203;SDS011;33994;50.998;5.864;2022-08-07T06:36:38;10.55;;;7.63;;
48203;SDS011;33994;50.998;5.864;2022-08-07T06:39:43;8.10;;;6.90;;
48203;SDS011;33994;50.998;5.864;2022-08-07T06:42:48;9.57;;;7.00;;
48203;SDS011;33994;50.998;5.864;2022-08-07T06:46:19;9.90;;;6.93;;
48203;SDS011;33994;50.998;5.864;2022-08-07T06:49:24;9.68;;;6.85;;
48203;SDS011;33994;50.998;5.864;2022-08-07T06:52:29;9.32;;;6.85;;
48203;SDS011;33994;50.998;5.864;2022-08-07T06:55:37;9.63;;;6.10;;
48203;SDS011;33994;50.998;5.864;2022-08-07T06:58:44;9.60;;;6.50;;
48203;SDS011;33994;50.998;5.864;2022-08-07T07:01:52;8.07;;;5.80;;
48203;SDS011;33994;50.998;5.864;2022-08-07T07:04:58;7.65;;;6.05;;
48203;SDS011;33994;50.998;5.864;2022-08-07T07:08:03;9.13;;;6.55;;
48203;SDS011;33994;50.998;5.864;2022-08-07T07:11:08;8.07;;;4.88;;
48203;SDS011;33994;50.998;5.864;2022-08-07T07:14:12;9.35;;;5.43;;
48203;SDS011;33994;50.998;5.864;2022-08-07T07:17:23;10.93;;;6.47;;
48203;SDS011;33994;50.998;5.864;2022-08-07T07:20:33;9.70;;;6.60;;
48203;SDS011;33994;50.998;5.864;2022-08-07T07:26:52;10.17;;;5.97;;
48203;SDS011;33994;50.998;5.864;2022-08-07T07:29:59;12.27;;;6.13;;
48203;SDS011;33994;50.998;5.864;2022-08-07T07:33:19;9.93;;;5.90;;
48203;SDS011;33994;50.998;5.864;2022-08-07T07:36:25;11.07;;;5.43;;
48203;SDS011;33994;50.998;5.864;2022-08-07T07:41:01;8.63;;;5.70;;
48203;SDS011;33994;50.998;5.864;2022-08-07T07:44:08;8.45;;;5.68;;
48203;SDS011;33994;50.998;5.864;2022-08-07T07:47:16;9.23;;;4.65;;
48203;SDS011;33994;50.998;5.864;2022-08-07T07:50:23;7.80;;;5.43;;
48203;SDS011;33994;50.998;5.864;2022-08-07T07:53:30;8.93;;;5.05;;
48203;SDS011;33994;50.998;5.864;2022-08-07T07:56:44;6.78;;;5.10;;
48203;SDS011;33994;50.998;5.864;2022-08-07T07:59:30;7.13;;;5.67;;
48203;SDS011;33994;50.998;5.864;2022-08-07T08:02:17;10.30;;;5.20;;
48203;SDS011;33994;50.998;5.864;2022-08-07T08:07:50;7.13;;;5.28;;
48203;SDS011;33994;50.998;5.864;2022-08-07T08:10:36;11.98;;;4.40;;
48203;SDS011;33994;50.998;5.864;2022-08-07T08:13:23;8.40;;;4.38;;
48203;SDS011;33994;50.998;5.864;2022-08-07T08:16:13;9.48;;;4.90;;
48203;SDS011;33994;50.998;5.864;2022-08-07T08:19:01;6.93;;;4.47;;
48203;SDS011;33994;50.998;5.864;2022-08-07T08:21:49;10.15;;;4.53;;
48203;SDS011;33994;50.998;5.864;2022-08-07T08:24:54;7.70;;;4.72;;
48203;SDS011;33994;50.998;5.864;2022-08-07T08:27:57;7.28;;;5.38;;
48203;SDS011;33994;50.998;5.864;2022-08-07T08:30:50;11.38;;;5.25;;
48203;SDS011;33994;50.998;5.864;2022-08-07T08:33:39;10.18;;;5.13;;
48203;SDS011;33994;50.998;5.864;2022-08-07T08:36:26;7.40;;;4.20;;
48203;SDS011;33994;50.998;5.864;2022-08-07T08:39:16;7.72;;;5.20;;
48203;SDS011;33994;50.998;5.864;2022-08-07T08:42:12;7.15;;;5.38;;
48203;SDS011;33994;50.998;5.864;2022-08-07T08:51:38;10.50;;;6.10;;
48203;SDS011;33994;50.998;5.864;2022-08-07T08:54:56;7.35;;;4.38;;
48203;SDS011;33994;50.998;5.864;2022-08-07T08:57:51;6.50;;;4.20;;
48203;SDS011;33994;50.998;5.864;2022-08-07T09:01:00;6.68;;;3.30;;
48203;SDS011;33994;50.998;5.864;2022-08-07T09:04:53;5.93;;;2.63;;
48203;SDS011;33994;50.998;5.864;2022-08-07T09:07:26;8.02;;;3.80;;
48203;SDS011;33994;50.998;5.864;2022-08-07T09:10:42;8.07;;;3.70;;
48203;SDS011;33994;50.998;5.864;2022-08-07T09:13:36;7.57;;;4.40;;
48203;SDS011;33994;50.998;5.864;2022-08-07T09:27:09;2.20;;;1.30;;
48203;SDS011;33994;50.998;5.864;2022-08-07T09:35:55;2.55;;;1.70;;
48203;SDS011;33994;50.998;5.864;2022-08-07T09:38:53;3.60;;;1.42;;
48203;SDS011;33994;50.998;5.864;2022-08-07T09:45:43;2.45;;;1.10;;
48203;SDS011;33994;50.998;5.864;2022-08-07T09:54:46;1.90;;;0.98;;
48203;SDS011;33994;50.998;5.864;2022-08-07T10:04:13;10.13;;;2.13;;
48203;SDS011;33994;50.998;5.864;2022-08-07T10:14:01;3.00;;;1.20;;
48203;SDS011;33994;50.998;5.864;2022-08-07T10:20:40;1.65;;;1.00;;
48203;SDS011;33994;50.998;5.864;2022-08-07T10:23:48;1.80;;;1.10;;
48203;SDS011;33994;50.998;5.864;2022-08-07T10:33:02;1.45;;;0.90;;
48203;SDS011;33994;50.998;5.864;2022-08-07T10:36:14;2.67;;;1.25;;
48203;SDS011;33994;50.998;5.864;2022-08-07T10:39:17;1.73;;;1.00;;
48203;SDS011;33994;50.998;5.864;2022-08-07T10:42:31;2.45;;;0.98;;
48203;SDS011;33994;50.998;5.864;2022-08-07T10:45:22;2.38;;;1.00;;
48203;SDS011;33994;50.998;5.864;2022-08-07T10:51:36;2.15;;;1.00;;
48203;SDS011;33994;50.998;5.864;2022-08-07T11:00:32;3.22;;;1.15;;
48203;SDS011;33994;50.998;5.864;2022-08-07T11:06:44;2.80;;;0.88;;
48203;SDS011;33994;50.998;5.864;2022-08-07T11:09:50;2.28;;;0.80;;
48203;SDS011;33994;50.998;5.864;2022-08-07T11:12:45;1.13;;;0.80;;
48203;SDS011;33994;50.998;5.864;2022-08-07T11:15:38;2.80;;;0.80;;
48203;SDS011;33994;50.998;5.864;2022-08-07T11:24:28;2.40;;;0.93;;
48203;SDS011;33994;50.998;5.864;2022-08-07T11:30:33;4.80;;;1.20;;
48203;SDS011;33994;50.998;5.864;2022-08-07T11:36:37;2.28;;;1.20;;
48203;SDS011;33994;50.998;5.864;2022-08-07T11:39:29;3.10;;;1.90;;
48203;SDS011;33994;50.998;5.864;2022-08-07T11:42:25;3.13;;;1.30;;
48203;SDS011;33994;50.998;5.864;2022-08-07T11:48:28;5.53;;;0.95;;
48203;SDS011;33994;50.998;5.864;2022-08-07T11:52:12;5.25;;;1.58;;
48203;SDS011;33994;50.998;5.864;2022-08-07T11:55:11;2.45;;;1.10;;
48203;SDS011;33994;50.998;5.864;2022-08-07T11:58:20;1.77;;;0.80;;
48203;SDS011;33994;50.998;5.864;2022-08-07T12:10:18;2.13;;;1.20;;
48203;SDS011;33994;50.998;5.864;2022-08-07T12:13:13;3.25;;;1.30;;
48203;SDS011;33994;50.998;5.864;2022-08-07T12:16:11;2.85;;;1.30;;
48203;SDS011;33994;50.998;5.864;2022-08-07T12:22:03;4.38;;;1.20;;
48203;SDS011;33994;50.998;5.864;2022-08-07T12:28:14;1.83;;;1.10;;
48203;SDS011;33994;50.998;5.864;2022-08-07T12:31:19;2.55;;;1.20;;
48203;SDS011;33994;50.998;5.864;2022-08-07T12:34:11;2.83;;;1.15;;
48203;SDS011;33994;50.998;5.864;2022-08-07T12:36:59;2.55;;;1.50;;
48203;SDS011;33994;50.998;5.864;2022-08-07T12:39:47;5.18;;;1.20;;
48203;SDS011;33994;50.998;5.864;2022-08-07T12:42:34;1.42;;;1.00;;
48203;SDS011;33994;50.998;5.864;2022-08-07T12:45:22;2.92;;;1.10;;
48203;SDS011;33994;50.998;5.864;2022-08-07T12:51:26;2.40;;;1.40;;
48203;SDS011;33994;50.998;5.864;2022-08-07T12:54:24;4.15;;;1.08;;
48203;SDS011;33994;50.998;5.864;2022-08-07T12:57:15;5.80;;;1.10;;
48203;SDS011;33994;50.998;5.864;2022-08-07T13:00:03;4.82;;;1.17;;
48203;SDS011;33994;50.998;5.864;2022-08-07T13:09:16;6.22;;;1.30;;
48203;SDS011;33994;50.998;5.864;2022-08-07T13:15:37;3.40;;;1.80;;
48203;SDS011;33994;50.998;5.864;2022-08-07T13:18:36;6.80;;;1.52;;
48203;SDS011;33994;50.998;5.864;2022-08-07T13:21:30;4.45;;;1.65;;
48203;SDS011;33994;50.998;5.864;2022-08-07T13:27:41;4.45;;;1.80;;
48203;SDS011;33994;50.998;5.864;2022-08-07T13:30:34;5.90;;;1.30;;
48203;SDS011;33994;50.998;5.864;2022-08-07T13:36:29;2.08;;;1.17;;
48203;SDS011;33994;50.998;5.864;2022-08-07T13:39:28;4.28;;;1.50;;
48203;SDS011;33994;50.998;5.864;2022-08-07T13:42:21;3.72;;;1.05;;
48203;SDS011;33994;50.998;5.864;2022-08-07T13:45:09;3.78;;;1.40;;
48203;SDS011;33994;50.998;5.864;2022-08-07T13:47:58;2.63;;;1.33;;
48203;SDS011;33994;50.998;5.864;2022-08-07T13:50:48;5.68;;;1.77;;
48203;SDS011;33994;50.998;5.864;2022-08-07T13:53:37;5.18;;;1.48;;
48203;SDS011;33994;50.998;5.864;2022-08-07T13:56:26;6.45;;;1.50;;
48203;SDS011;33994;50.998;5.864;2022-08-07T13:59:24;2.92;;;1.30;;
48203;SDS011;33994;50.998;5.864;2022-08-07T14:02:18;3.63;;;1.83;;
48203;SDS011;33994;50.998;5.864;2022-08-07T14:05:08;4.93;;;1.55;;
48203;SDS011;33994;50.998;5.864;2022-08-07T14:07:57;9.27;;;1.30;;
48203;SDS011;33994;50.998;5.864;2022-08-07T14:10:43;3.67;;;1.40;;
48203;SDS011;33994;50.998;5.864;2022-08-07T14:13:34;2.78;;;1.33;;
48203;SDS011;33994;50.998;5.864;2022-08-07T14:16:25;3.45;;;1.45;;
48203;SDS011;33994;50.998;5.864;2022-08-07T14:19:23;2.13;;;1.25;;
48203;SDS011;33994;50.998;5.864;2022-08-07T14:22:21;3.50;;;1.60;;
48203;SDS011;33994;50.998;5.864;2022-08-07T14:25:12;2.22;;;1.20;;
48203;SDS011;33994;50.998;5.864;2022-08-07T14:28:02;2.58;;;1.27;;
48203;SDS011;33994;50.998;5.864;2022-08-07T14:30:51;5.53;;;1.40;;
48203;SDS011;33994;50.998;5.864;2022-08-07T14:33:39;5.35;;;1.25;;
48203;SDS011;33994;50.998;5.864;2022-08-07T14:39:13;3.75;;;1.17;;
48203;SDS011;33994;50.998;5.864;2022-08-07T14:42:00;7.03;;;1.20;;
48203;SDS011;33994;50.998;5.864;2022-08-07T14:44:50;2.65;;;1.60;;
48203;SDS011;33994;50.998;5.864;2022-08-07T14:47:38;3.35;;;1.35;;
48203;SDS011;33994;50.998;5.864;2022-08-07T14:50:25;3.35;;;1.27;;
48203;SDS011;33994;50.998;5.864;2022-08-07T14:53:13;1.88;;;1.30;;
48203;SDS011;33994;50.998;5.864;2022-08-07T14:56:05;3.78;;;1.52;;
48203;SDS011;33994;50.998;5.864;2022-08-07T14:58:54;3.92;;;1.50;;
48203;SDS011;33994;50.998;5.864;2022-08-07T15:01:52;2.17;;;1.10;;
48203;SDS011;33994;50.998;5.864;2022-08-07T15:04:43;2.55;;;1.38;;
48203;SDS011;33994;50.998;5.864;2022-08-07T15:07:30;3.38;;;1.00;;
48203;SDS011;33994;50.998;5.864;2022-08-07T15:10:21;5.43;;;1.10;;
48203;SDS011;33994;50.998;5.864;2022-08-07T15:13:18;4.13;;;1.52;;
48203;SDS011;33994;50.998;5.864;2022-08-07T15:16:06;2.28;;;1.20;;
48203;SDS011;33994;50.998;5.864;2022-08-07T15:18:54;1.73;;;1.23;;
48203;SDS011;33994;50.998;5.864;2022-08-07T15:21:46;3.72;;;1.20;;
48203;SDS011;33994;50.998;5.864;2022-08-07T15:24:34;1.55;;;1.10;;
48203;SDS011;33994;50.998;5.864;2022-08-07T15:27:24;2.85;;;1.15;;
48203;SDS011;33994;50.998;5.864;2022-08-07T15:30:19;3.22;;;1.30;;
48203;SDS011;33994;50.998;5.864;2022-08-07T15:33:05;5.93;;;2.15;;
48203;SDS011;33994;50.998;5.864;2022-08-07T15:35:51;4.60;;;1.20;;
48203;SDS011;33994;50.998;5.864;2022-08-07T15:38:38;1.85;;;1.23;;
48203;SDS011;33994;50.998;5.864;2022-08-07T15:41:27;4.10;;;1.20;;
48203;SDS011;33994;50.998;5.864;2022-08-07T15:44:17;3.00;;;1.20;;
48203;SDS011;33994;50.998;5.864;2022-08-07T15:47:05;2.75;;;1.20;;
48203;SDS011;33994;50.998;5.864;2022-08-07T15:49:51;1.85;;;1.35;;
48203;SDS011;33994;50.998;5.864;2022-08-07T15:52:39;4.90;;;1.40;;
48203;SDS011;33994;50.998;5.864;2022-08-07T15:55:25;3.72;;;1.52;;
48203;SDS011;33994;50.998;5.864;2022-08-07T15:58:14;2.33;;;1.13;;
48203;SDS011;33994;50.998;5.864;2022-08-07T16:01:01;4.18;;;1.92;;
48203;SDS011;33994;50.998;5.864;2022-08-07T16:03:54;2.15;;;1.60;;
48203;SDS011;33994;50.998;5.864;2022-08-07T16:06:57;6.13;;;1.70;;
48203;SDS011;33994;50.998;5.864;2022-08-07T16:09:51;3.40;;;1.75;;
48203;SDS011;33994;50.998;5.864;2022-08-07T16:12:50;2.00;;;1.38;;
48203;SDS011;33994;50.998;5.864;2022-08-07T16:22:02;3.08;;;1.58;;
48203;SDS011;33994;50.998;5.864;2022-08-07T16:24:54;2.22;;;1.38;;
48203;SDS011;33994;50.998;5.864;2022-08-07T16:27:47;3.45;;;1.40;;
48203;SDS011;33994;50.998;5.864;2022-08-07T16:30:51;1.83;;;1.35;;
48203;SDS011;33994;50.998;5.864;2022-08-07T16:33:45;3.10;;;1.42;;
48203;SDS011;33994;50.998;5.864;2022-08-07T16:36:33;2.75;;;1.40;;
48203;SDS011;33994;50.998;5.864;2022-08-07T16:42:58;2.65;;;1.30;;
48203;SDS011;33994;50.998;5.864;2022-08-07T17:00:19;6.43;;;2.47;;
48203;SDS011;33994;50.998;5.864;2022-08-07T17:03:19;3.80;;;1.67;;
48203;SDS011;33994;50.998;5.864;2022-08-07T17:06:18;3.05;;;2.10;;
48203;SDS011;33994;50.998;5.864;2022-08-07T17:16:01;2.70;;;1.38;;
48203;SDS011;33994;50.998;5.864;2022-08-07T17:21:47;4.70;;;1.50;;
48203;SDS011;33994;50.998;5.864;2022-08-07T17:25:22;2.78;;;1.63;;
48203;SDS011;33994;50.998;5.864;2022-08-07T17:31:11;5.88;;;1.80;;
48203;SDS011;33994;50.998;5.864;2022-08-07T17:34:25;5.70;;;2.35;;
48203;SDS011;33994;50.998;5.864;2022-08-07T17:37:17;4.60;;;1.83;;
48203;SDS011;33994;50.998;5.864;2022-08-07T17:40:29;3.22;;;2.05;;
48203;SDS011;33994;50.998;5.864;2022-08-07T17:43:42;3.03;;;2.45;;
48203;SDS011;33994;50.998;5.864;2022-08-07T17:46:45;6.03;;;2.30;;
48203;SDS011;33994;50.998;5.864;2022-08-07T17:49:40;2.88;;;2.15;;
48203;SDS011;33994;50.998;5.864;2022-08-07T17:52:38;4.88;;;2.53;;
48203;SDS011;33994;50.998;5.864;2022-08-07T17:55:31;2.58;;;1.92;;
48203;SDS011;33994;50.998;5.864;2022-08-07T17:58:24;3.72;;;2.30;;
48203;SDS011;33994;50.998;5.864;2022-08-07T18:01:22;4.70;;;2.35;;
48203;SDS011;33994;50.998;5.864;2022-08-07T18:10:00;6.55;;;2.30;;
48203;SDS011;33994;50.998;5.864;2022-08-07T18:22:14;4.05;;;1.77;;
48203;SDS011;33994;50.998;5.864;2022-08-07T18:25:08;6.50;;;2.28;;
48203;SDS011;33994;50.998;5.864;2022-08-07T18:28:14;2.97;;;2.00;;
48203;SDS011;33994;50.998;5.864;2022-08-07T18:37:15;3.08;;;1.90;;
48203;SDS011;33994;50.998;5.864;2022-08-07T18:40:15;5.15;;;2.40;;
48203;SDS011;33994;50.998;5.864;2022-08-07T18:43:09;5.95;;;1.90;;
48203;SDS011;33994;50.998;5.864;2022-08-07T18:46:04;4.40;;;2.10;;
48203;SDS011;33994;50.998;5.864;2022-08-07T18:49:07;3.25;;;1.92;;
48203;SDS011;33994;50.998;5.864;2022-08-07T18:52:02;4.47;;;2.10;;
48203;SDS011;33994;50.998;5.864;2022-08-07T18:55:20;3.58;;;1.60;;
48203;SDS011;33994;50.998;5.864;2022-08-07T18:58:15;3.55;;;1.80;;
48203;SDS011;33994;50.998;5.864;2022-08-07T19:01:12;3.55;;;1.75;;
48203;SDS011;33994;50.998;5.864;2022-08-07T19:04:10;2.78;;;1.98;;
48203;SDS011;33994;50.998;5.864;2022-08-07T19:07:01;3.80;;;2.08;;
48203;SDS011;33994;50.998;5.864;2022-08-07T19:09:52;3.15;;;2.10;;
48203;SDS011;33994;50.998;5.864;2022-08-07T19:15:55;6.40;;;2.25;;
48203;SDS011;33994;50.998;5.864;2022-08-07T19:18:56;6.18;;;2.10;;
48203;SDS011;33994;50.998;5.864;2022-08-07T19:21:47;4.03;;;2.25;;
48203;SDS011;33994;50.998;5.864;2022-08-07T19:24:41;3.97;;;2.10;;
48203;SDS011;33994;50.998;5.864;2022-08-07T19:27:33;7.45;;;2.47;;
48203;SDS011;33994;50.998;5.864;2022-08-07T19:30:22;5.93;;;2.00;;
48203;SDS011;33994;50.998;5.864;2022-08-07T19:33:12;7.72;;;1.98;;
48203;SDS011;33994;50.998;5.864;2022-08-07T19:35:58;6.88;;;2.33;;
48203;SDS011;33994;50.998;5.864;2022-08-07T19:38:46;4.93;;;2.13;;
48203;SDS011;33994;50.998;5.864;2022-08-07T19:41:40;2.92;;;2.20;;
48203;SDS011;33994;50.998;5.864;2022-08-07T19:44:28;5.90;;;2.25;;
48203;SDS011;33994;50.998;5.864;2022-08-07T19:47:29;4.80;;;1.83;;
48203;SDS011;33994;50.998;5.864;2022-08-07T19:50:15;4.30;;;2.40;;
48203;SDS011;33994;50.998;5.864;2022-08-07T19:53:10;6.60;;;2.28;;
48203;SDS011;33994;50.998;5.864;2022-08-07T19:56:01;3.72;;;2.00;;
48203;SDS011;33994;50.998;5.864;2022-08-07T19:58:55;3.80;;;1.90;;
48203;SDS011;33994;50.998;5.864;2022-08-07T20:01:47;5.97;;;1.80;;
48203;SDS011;33994;50.998;5.864;2022-08-07T20:04:37;4.72;;;2.15;;
48203;SDS011;33994;50.998;5.864;2022-08-07T20:07:26;4.45;;;1.90;;
48203;SDS011;33994;50.998;5.864;2022-08-07T20:10:20;5.30;;;1.70;;
48203;SDS011;33994;50.998;5.864;2022-08-07T20:13:13;4.47;;;2.05;;
48203;SDS011;33994;50.998;5.864;2022-08-07T20:16:05;4.82;;;2.00;;
48203;SDS011;33994;50.998;5.864;2022-08-07T20:18:53;4.10;;;2.22;;
48203;SDS011;33994;50.998;5.864;2022-08-07T20:21:41;2.72;;;1.83;;
48203;SDS011;33994;50.998;5.864;2022-08-07T20:24:29;4.18;;;2.10;;
48203;SDS011;33994;50.998;5.864;2022-08-07T20:27:20;2.85;;;1.90;;
48203;SDS011;33994;50.998;5.864;2022-08-07T20:30:08;3.53;;;2.00;;
48203;SDS011;33994;50.998;5.864;2022-08-07T20:32:54;3.90;;;1.93;;
48203;SDS011;33994;50.998;5.864;2022-08-07T20:35:45;3.45;;;2.03;;
48203;SDS011;33994;50.998;5.864;2022-08-07T20:38:32;1.95;;;1.60;;
48203;SDS011;33994;50.998;5.864;2022-08-07T20:41:19;3.90;;;1.83;;
48203;SDS011;33994;50.998;5.864;2022-08-07T20:44:08;7.97;;;2.15;;
48203;SDS011;33994;50.998;5.864;2022-08-07T20:46:57;6.35;;;2.17;;
48203;SDS011;33994;50.998;5.864;2022-08-07T20:49:48;3.17;;;1.85;;
48203;SDS011;33994;50.998;5.864;2022-08-07T20:52:34;2.90;;;1.80;;
48203;SDS011;33994;50.998;5.864;2022-08-07T20:55:25;2.55;;;1.60;;
48203;SDS011;33994;50.998;5.864;2022-08-07T20:58:11;2.70;;;2.00;;
48203;SDS011;33994;50.998;5.864;2022-08-07T21:01:07;4.90;;;1.90;;
48203;SDS011;33994;50.998;5.864;2022-08-07T21:03:56;11.10;;;1.88;;
48203;SDS011;33994;50.998;5.864;2022-08-07T21:06:44;8.88;;;2.20;;
48203;SDS011;33994;50.998;5.864;2022-08-07T21:09:33;4.85;;;1.88;;
48203;SDS011;33994;50.998;5.864;2022-08-07T21:12:24;3.25;;;1.77;;
48203;SDS011;33994;50.998;5.864;2022-08-07T21:15:14;2.38;;;1.58;;
48203;SDS011;33994;50.998;5.864;2022-08-07T21:18:01;4.28;;;2.20;;
48203;SDS011;33994;50.998;5.864;2022-08-07T21:20:54;2.95;;;1.80;;
48203;SDS011;33994;50.998;5.864;2022-08-07T21:24:16;9.20;;;2.13;;